Aviation Digital Data Service (ADDS)

Output produced by METARs form (0743 UTC 20 January 2017)
found at http://aviationweather.gov/adds/metars/
 
KAEX 200541Z 2006/2106 18005KT P6SM FEW050 
     TEMPO 2008/2010 5SM BR SCT004 
     FM201000 19003KT 2SM BR BKN004 
     FM201500 19008KT 4SM BR BKN007 BKN020 
     FM201600 20010KT P6SM SCT025 SCT250 
     FM210000 16005KT P6SM VCSH BKN007 OVC025